createdAt,value
2019-04-04T00:00:24.494Z,11.80
2019-04-04T00:01:24.482Z,12.40
2019-04-04T00:02:24.469Z,12.20
2019-04-04T00:03:24.499Z,11.50
2019-04-04T00:04:24.497Z,11.50
2019-04-04T00:05:26.213Z,12.40
2019-04-04T00:06:26.697Z,12.40
2019-04-04T00:07:24.459Z,12.60
2019-04-04T00:08:24.404Z,12.30
2019-04-04T00:09:24.394Z,12.60
2019-04-04T00:10:24.383Z,12.10
2019-04-04T00:11:24.376Z,12.30
2019-04-04T00:12:24.404Z,11.60
2019-04-04T00:13:24.351Z,11.80
2019-04-04T00:14:24.337Z,12.80
2019-04-04T00:15:24.372Z,12.40
2019-04-04T00:16:24.319Z,12.10
2019-04-04T00:17:24.346Z,12.30
2019-04-04T00:18:25.488Z,12.40
2019-04-04T00:19:24.284Z,12.20
2019-04-04T00:20:24.273Z,12.50
2019-04-04T00:21:24.263Z,12.20
2019-04-04T00:22:24.253Z,12.50
2019-04-04T00:23:24.279Z,12.70
2019-04-04T00:24:24.270Z,12.00
2019-04-04T00:25:24.219Z,13.70
2019-04-04T00:26:24.207Z,12.70
2019-04-04T00:27:24.197Z,13.20
2019-04-04T00:28:24.192Z,13.20
2019-04-04T00:29:24.243Z,12.50
2019-04-04T00:30:24.165Z,12.20
2019-04-04T00:31:24.178Z,12.70
2019-04-04T00:32:24.181Z,12.70
2019-04-04T00:33:25.735Z,12.20
2019-04-04T00:34:24.122Z,12.90
2019-04-04T00:35:24.111Z,12.70
2019-04-04T00:36:24.141Z,11.80
2019-04-04T00:37:24.124Z,12.60
2019-04-04T00:38:24.075Z,11.40
2019-04-04T00:39:24.062Z,11.40
2019-04-04T00:40:24.053Z,11.90
2019-04-04T00:41:24.086Z,11.30
2019-04-04T00:42:24.036Z,12.30
2019-04-04T00:43:24.019Z,11.30
2019-04-04T00:44:24.007Z,11.30
2019-04-04T00:45:24.003Z,11.70
2019-04-04T00:46:24.030Z,11.70
2019-04-04T00:47:23.975Z,11.30
2019-04-04T00:48:23.967Z,11.80
2019-04-04T00:49:23.957Z,11.50
2019-04-04T00:50:23.949Z,12.20
2019-04-04T00:51:23.930Z,11.90
2019-04-04T00:52:23.963Z,11.60
2019-04-04T00:53:23.969Z,12.30
2019-04-04T00:54:23.899Z,12.50
2019-04-04T00:55:23.887Z,11.80
2019-04-04T00:56:23.874Z,12.20
2019-04-04T00:57:23.866Z,12.00
2019-04-04T00:58:23.861Z,11.00
2019-04-04T00:59:23.882Z,12.00
2019-04-04T01:00:24.546Z,11.70
2019-04-04T01:01:26.059Z,12.00
2019-04-04T01:02:23.816Z,11.70
2019-04-04T01:03:23.843Z,11.00
2019-04-04T01:04:23.839Z,11.80
2019-04-04T01:05:23.779Z,11.20
2019-04-04T01:06:23.769Z,11.20
2019-04-04T01:07:23.756Z,12.40
2019-04-04T01:08:23.745Z,12.00
2019-04-04T01:09:23.739Z,11.20
2019-04-04T01:10:23.762Z,10.80
2019-04-04T01:11:23.757Z,11.90
2019-04-04T01:12:23.702Z,11.80
2019-04-04T01:13:27.245Z,11.00
2019-04-04T01:14:23.684Z,11.10
2019-04-04T01:15:23.706Z,11.90
2019-04-04T01:16:23.678Z,11.90
2019-04-04T01:17:23.649Z,13.20
2019-04-04T01:18:23.635Z,11.60
2019-04-04T01:19:23.663Z,11.80
2019-04-04T01:20:23.615Z,11.90
2019-04-04T01:21:23.608Z,11.80
2019-04-04T01:22:25.134Z,12.30
2019-04-04T01:23:25.144Z,11.80
2019-04-04T01:24:23.608Z,12.00
2019-04-04T01:25:23.600Z,11.70
2019-04-04T01:26:23.594Z,12.30
2019-04-04T01:27:23.540Z,12.10
2019-04-04T01:28:23.523Z,12.20
2019-04-04T01:29:23.515Z,12.40
2019-04-04T01:30:23.504Z,11.60
2019-04-04T01:31:23.492Z,11.50
2019-04-04T01:32:23.522Z,11.90
2019-04-04T01:33:23.473Z,11.80
2019-04-04T01:34:23.459Z,12.10
2019-04-04T01:35:23.448Z,12.00
2019-04-04T01:36:25.355Z,12.80
2019-04-04T01:37:25.206Z,13.00
2019-04-04T01:38:23.419Z,12.30
2019-04-04T01:39:23.407Z,13.60
2019-04-04T01:40:23.393Z,13.00
2019-04-04T01:41:23.387Z,13.00
2019-04-04T01:42:23.429Z,13.00
2019-04-04T01:43:23.362Z,12.70
2019-04-04T01:44:23.358Z,12.40
2019-04-04T01:45:23.403Z,13.50
2019-04-04T01:46:23.337Z,12.70
2019-04-04T01:47:23.315Z,12.90
2019-04-04T01:48:23.304Z,12.30
2019-04-04T01:49:23.294Z,13.00
2019-04-04T01:50:23.369Z,12.60
2019-04-04T01:51:25.466Z,13.70
2019-04-04T01:52:23.259Z,13.50
2019-04-04T01:53:23.251Z,12.80
2019-04-04T01:54:23.289Z,13.10
2019-04-04T01:55:23.229Z,13.10
2019-04-04T01:56:23.221Z,13.30
2019-04-04T01:57:23.205Z,13.90
2019-04-04T01:58:23.198Z,14.10
2019-04-04T01:59:23.184Z,13.70
2019-04-04T02:00:23.219Z,13.80
2019-04-04T02:01:23.207Z,14.30
2019-04-04T02:02:23.163Z,13.90
2019-04-04T02:03:23.374Z,14.10
2019-04-04T02:04:24.786Z,14.10
2019-04-04T02:05:23.126Z,13.30
2019-04-04T02:06:23.112Z,15.00
2019-04-04T02:07:23.150Z,14.30
2019-04-04T02:08:23.087Z,13.50
2019-04-04T02:09:23.076Z,13.50
2019-04-04T02:10:23.068Z,14.10
2019-04-04T02:11:23.054Z,14.20
2019-04-04T02:12:23.054Z,12.70
2019-04-04T02:13:23.073Z,13.30
2019-04-04T02:14:23.032Z,12.80
2019-04-04T02:15:23.011Z,13.60
2019-04-04T02:16:23.043Z,12.70
2019-04-04T02:17:22.986Z,14.10
2019-04-04T02:18:23.586Z,13.90
2019-04-04T02:19:24.815Z,13.20
2019-04-04T02:20:22.958Z,14.20
2019-04-04T02:21:22.942Z,13.70
2019-04-04T02:22:22.974Z,13.50
2019-04-04T02:23:22.922Z,14.10
2019-04-04T02:24:22.916Z,13.90
2019-04-04T02:25:22.898Z,14.10
2019-04-04T02:26:22.892Z,13.90
2019-04-04T02:27:22.919Z,12.90
2019-04-04T02:28:22.871Z,12.90
2019-04-04T02:29:22.904Z,13.00
2019-04-04T02:30:22.846Z,13.60
2019-04-04T02:31:22.853Z,13.20
2019-04-04T02:32:26.127Z,13.50
2019-04-04T02:33:22.819Z,14.10
2019-04-04T02:34:22.806Z,13.20
2019-04-04T02:35:22.846Z,13.30
2019-04-04T02:36:22.781Z,13.50
2019-04-04T02:37:22.813Z,13.40
2019-04-04T02:38:27.033Z,12.90
2019-04-04T02:39:23.754Z,13.50
2019-04-04T02:40:22.735Z,14.10
2019-04-04T02:41:22.763Z,12.70
2019-04-04T02:42:22.753Z,14.10
2019-04-04T02:43:27.333Z,14.00
2019-04-04T02:44:23.691Z,14.00
2019-04-04T02:45:22.681Z,14.20
2019-04-04T02:46:22.711Z,13.60
2019-04-04T02:47:22.701Z,14.20
2019-04-04T02:48:24.413Z,14.60
2019-04-04T02:49:22.680Z,13.90
2019-04-04T02:50:22.626Z,14.30
2019-04-04T02:51:22.616Z,14.40
2019-04-04T02:52:22.604Z,13.60
2019-04-04T02:53:22.594Z,13.30
2019-04-04T02:54:24.614Z,14.60
2019-04-04T02:55:22.578Z,14.10
2019-04-04T02:56:22.558Z,15.10
2019-04-04T02:57:22.551Z,14.30
2019-04-04T02:58:22.538Z,14.00
2019-04-04T02:59:22.600Z,14.80
2019-04-04T03:00:26.343Z,14.60
2019-04-04T03:01:23.501Z,14.10
2019-04-04T03:02:22.503Z,15.00
2019-04-04T03:03:22.485Z,14.40
2019-04-04T03:04:22.526Z,14.30
2019-04-04T03:05:22.460Z,14.40
2019-04-04T03:06:24.507Z,14.20
2019-04-04T03:07:22.446Z,14.90
2019-04-04T03:08:22.436Z,15.00
2019-04-04T03:09:22.418Z,14.50
2019-04-04T03:10:22.454Z,15.40
2019-04-04T03:11:22.943Z,14.80
2019-04-04T03:12:25.694Z,15.20
2019-04-04T03:13:22.378Z,14.90
2019-04-04T03:14:22.359Z,15.50
2019-04-04T03:15:22.358Z,15.80
2019-04-04T03:16:22.604Z,15.30
2019-04-04T03:17:22.329Z,14.40
2019-04-04T03:18:22.325Z,14.80
2019-04-04T03:19:22.313Z,14.10
2019-04-04T03:20:22.300Z,15.60
2019-04-04T03:21:23.572Z,15.40
2019-04-04T03:22:26.953Z,15.30
2019-04-04T03:23:23.262Z,15.30
2019-04-04T03:24:22.252Z,14.60
2019-04-04T03:25:22.298Z,15.20
2019-04-04T03:26:22.257Z,15.50
2019-04-04T03:27:25.743Z,15.70
2019-04-04T03:28:22.211Z,15.80
2019-04-04T03:29:22.196Z,15.20
2019-04-04T03:30:22.187Z,14.30
2019-04-04T03:31:22.243Z,14.60
2019-04-04T03:32:22.170Z,13.90
2019-04-04T03:33:28.987Z,14.50
2019-04-04T03:34:23.152Z,15.40
2019-04-04T03:35:28.309Z,14.40
2019-04-04T03:36:23.175Z,14.70
2019-04-04T03:37:22.109Z,15.00
2019-04-04T03:38:22.109Z,14.70
2019-04-04T03:39:22.137Z,14.80
2019-04-04T03:40:24.620Z,14.20
2019-04-04T03:41:22.065Z,14.40
2019-04-04T03:42:22.058Z,14.10
2019-04-04T03:43:22.087Z,14.50
2019-04-04T03:44:22.033Z,13.80
2019-04-04T03:45:25.971Z,14.60
2019-04-04T03:46:23.007Z,15.10
2019-04-04T03:47:22.051Z,14.90
2019-04-04T03:48:22.035Z,13.80
2019-04-04T03:49:24.455Z,14.50
2019-04-04T03:50:21.968Z,14.30
2019-04-04T03:51:21.959Z,14.50
2019-04-04T03:52:21.944Z,14.10
2019-04-04T03:53:21.973Z,13.30
2019-04-04T03:54:23.298Z,14.30
2019-04-04T03:55:21.918Z,13.00
2019-04-04T03:56:21.899Z,13.00
2019-04-04T03:57:21.889Z,14.00
2019-04-04T03:58:21.876Z,14.20
2019-04-04T03:59:21.908Z,13.10
2019-04-04T04:00:21.862Z,12.90
2019-04-04T04:01:21.847Z,13.40
2019-04-04T04:02:21.835Z,13.60
2019-04-04T04:03:22.743Z,12.60
2019-04-04T04:04:21.852Z,13.20
2019-04-04T04:05:21.803Z,13.50
2019-04-04T04:06:21.844Z,12.90
2019-04-04T04:07:21.784Z,14.20
2019-04-04T04:08:22.290Z,15.60
2019-04-04T04:09:23.513Z,14.00
2019-04-04T04:10:21.746Z,14.10
2019-04-04T04:11:21.781Z,13.80
2019-04-04T04:12:21.736Z,13.80
2019-04-04T04:13:21.711Z,13.90
2019-04-04T04:14:22.661Z,13.60
2019-04-04T04:15:21.697Z,13.80
2019-04-04T04:16:21.684Z,13.50
2019-04-04T04:17:21.722Z,13.80
2019-04-04T04:18:21.951Z,14.20
2019-04-04T04:19:24.233Z,13.90
2019-04-04T04:20:21.644Z,14.20
2019-04-04T04:21:21.624Z,14.20
2019-04-04T04:22:21.613Z,14.50
2019-04-04T04:23:23.896Z,14.10
2019-04-04T04:24:21.604Z,13.40
2019-04-04T04:25:21.586Z,12.10
2019-04-04T04:26:21.618Z,13.30
2019-04-04T04:27:21.568Z,13.40
2019-04-04T04:28:21.577Z,13.50
2019-04-04T04:29:21.539Z,13.40
2019-04-04T04:30:21.551Z,13.60
2019-04-04T04:31:21.525Z,12.90
2019-04-04T04:32:22.704Z,14.90
2019-04-04T04:33:21.502Z,14.10
2019-04-04T04:34:21.534Z,13.80
2019-04-04T04:35:21.471Z,13.70
2019-04-04T04:36:21.463Z,14.20
2019-04-04T04:37:21.451Z,14.70
2019-04-04T04:38:25.599Z,15.00
2019-04-04T04:39:22.475Z,14.50
2019-04-04T04:40:21.468Z,14.80
2019-04-04T04:41:21.489Z,14.70
2019-04-04T04:42:21.647Z,14.00
2019-04-04T04:43:21.384Z,15.60
2019-04-04T04:44:21.371Z,17.10
2019-04-04T04:45:21.377Z,15.90
2019-04-04T04:46:21.349Z,16.00
2019-04-04T04:47:23.850Z,15.90
2019-04-04T04:48:21.326Z,15.40
2019-04-04T04:49:23.272Z,14.90
2019-04-04T04:50:21.304Z,15.70
2019-04-04T04:51:21.296Z,15.50
2019-04-04T04:52:21.328Z,15.10
2019-04-04T04:53:21.314Z,15.60
2019-04-04T04:54:22.898Z,15.60
2019-04-04T04:55:21.248Z,14.70
2019-04-04T04:56:21.240Z,15.90
2019-04-04T04:57:29.479Z,15.20
2019-04-04T04:58:22.260Z,15.30
2019-04-04T04:59:21.228Z,15.60
2019-04-04T05:00:21.195Z,14.80
2019-04-04T05:01:21.207Z,15.20
2019-04-04T05:02:22.358Z,15.60
2019-04-04T05:03:22.171Z,15.50
2019-04-04T05:04:21.209Z,14.60
2019-04-04T05:05:21.145Z,15.00
2019-04-04T05:06:21.166Z,15.80
2019-04-04T05:07:21.128Z,14.80
2019-04-04T05:08:21.125Z,15.80
2019-04-04T05:09:21.108Z,15.20
2019-04-04T05:10:21.165Z,15.80
2019-04-04T05:11:21.085Z,14.80
2019-04-04T05:12:21.913Z,15.10
2019-04-04T05:13:21.053Z,16.30
2019-04-04T05:14:21.088Z,16.00
2019-04-04T05:15:21.388Z,16.50
2019-04-04T05:16:21.021Z,15.50
2019-04-04T05:17:21.006Z,16.40
2019-04-04T05:18:21.010Z,16.40
2019-04-04T05:19:20.985Z,17.50
2019-04-04T05:20:21.020Z,16.00
2019-04-04T05:21:25.552Z,16.20
2019-04-04T05:22:22.001Z,16.50
2019-04-04T05:23:21.006Z,17.60
2019-04-04T05:24:20.976Z,17.00
2019-04-04T05:25:20.943Z,17.30
2019-04-04T05:26:20.977Z,17.00
2019-04-04T05:27:20.901Z,17.40
2019-04-04T05:28:20.892Z,17.90
2019-04-04T05:29:20.897Z,16.40
2019-04-04T05:30:20.909Z,17.40
2019-04-04T05:31:20.866Z,19.20
2019-04-04T05:32:21.689Z,17.50
2019-04-04T05:33:22.828Z,16.30
2019-04-04T05:34:20.831Z,16.10
2019-04-04T05:35:20.811Z,15.90
2019-04-04T05:36:20.817Z,17.00
2019-04-04T05:37:20.789Z,18.30
2019-04-04T05:38:20.820Z,27.10
2019-04-04T05:39:20.781Z,30.50
2019-04-04T05:40:23.259Z,23.30
2019-04-04T05:41:20.789Z,28.00
2019-04-04T05:42:20.741Z,27.30
2019-04-04T05:43:20.785Z,27.10
2019-04-04T05:44:20.719Z,23.60
2019-04-04T05:45:20.711Z,18.90
2019-04-04T05:46:20.701Z,20.30
2019-04-04T05:47:22.901Z,19.20
2019-04-04T05:48:20.690Z,19.10
2019-04-04T05:49:20.722Z,19.30
2019-04-04T05:50:20.700Z,18.90
2019-04-04T05:51:20.651Z,18.70
2019-04-04T05:52:20.640Z,18.60
2019-04-04T05:53:21.559Z,18.40
2019-04-04T05:54:20.602Z,18.20
2019-04-04T05:55:20.651Z,18.20
2019-04-04T05:56:20.584Z,18.70
2019-04-04T05:57:20.795Z,17.40
2019-04-04T05:58:22.588Z,19.20
2019-04-04T05:59:23.631Z,17.50
2019-04-04T06:00:20.551Z,18.20
2019-04-04T06:01:20.528Z,18.30
2019-04-04T06:02:20.530Z,19.70
2019-04-04T06:03:20.611Z,20.10
2019-04-04T06:04:20.517Z,20.60
2019-04-04T06:05:20.538Z,18.80
2019-04-04T06:06:20.475Z,16.90
2019-04-04T06:07:20.490Z,19.50
2019-04-04T06:08:20.471Z,15.90
2019-04-04T06:09:20.528Z,15.20
2019-04-04T06:10:20.474Z,18.50
2019-04-04T06:11:21.653Z,16.30
2019-04-04T06:12:20.509Z,15.60
2019-04-04T06:13:22.217Z,16.00
2019-04-04T06:14:20.744Z,14.80
2019-04-04T06:15:20.592Z,16.50
2019-04-04T06:16:20.378Z,16.40
2019-04-04T06:17:20.398Z,15.90
2019-04-04T06:18:20.336Z,15.10
2019-04-04T06:19:20.387Z,15.20
2019-04-04T06:20:20.373Z,15.80
2019-04-04T06:21:20.317Z,16.10
2019-04-04T06:22:21.256Z,15.60
2019-04-04T06:23:20.612Z,16.40
2019-04-04T06:24:20.345Z,16.80
2019-04-04T06:25:20.275Z,15.30
2019-04-04T06:26:20.293Z,15.10
2019-04-04T06:27:20.274Z,16.40
2019-04-04T06:28:20.255Z,16.20
2019-04-04T06:29:20.222Z,16.60
2019-04-04T06:30:20.787Z,15.30
2019-04-04T06:31:20.246Z,14.60
2019-04-04T06:32:20.252Z,15.30
2019-04-04T06:33:20.191Z,15.00
2019-04-04T06:34:20.188Z,15.40
2019-04-04T06:35:20.162Z,14.60
2019-04-04T06:36:20.159Z,14.50
2019-04-04T06:37:20.669Z,15.60
2019-04-04T06:38:22.969Z,14.60
2019-04-04T06:39:20.171Z,14.80
2019-04-04T06:40:20.144Z,15.40
2019-04-04T06:41:20.094Z,15.10
2019-04-04T06:42:20.073Z,14.90
2019-04-04T06:43:20.093Z,15.20
2019-04-04T06:44:20.061Z,14.70
2019-04-04T06:45:20.112Z,15.40
2019-04-04T06:46:22.728Z,14.40
2019-04-04T06:47:20.042Z,14.70
2019-04-04T06:48:20.032Z,15.50
2019-04-04T06:49:20.013Z,15.20
2019-04-04T06:50:19.998Z,15.10
2019-04-04T06:51:20.067Z,15.60
2019-04-04T06:52:19.976Z,14.80
2019-04-04T06:53:21.865Z,16.20
2019-04-04T06:54:19.958Z,16.30
2019-04-04T06:55:19.937Z,14.80
2019-04-04T06:56:19.952Z,15.60
2019-04-04T06:57:19.973Z,15.30
2019-04-04T06:58:19.914Z,15.50
2019-04-04T06:59:19.903Z,15.80
2019-04-04T07:00:19.893Z,16.60
2019-04-04T07:01:21.997Z,16.80
2019-04-04T07:02:19.865Z,18.40
2019-04-04T07:03:19.901Z,21.20
2019-04-04T07:04:19.836Z,21.40
2019-04-04T07:05:19.824Z,20.80
2019-04-04T07:06:19.829Z,17.20
2019-04-04T07:07:19.809Z,18.70
2019-04-04T07:08:19.837Z,19.50
2019-04-04T07:09:19.801Z,17.50
2019-04-04T07:10:21.829Z,16.10
2019-04-04T07:11:21.571Z,16.50
2019-04-04T07:12:24.347Z,16.50
2019-04-04T07:13:22.514Z,17.20
2019-04-04T07:14:21.617Z,18.80
2019-04-04T07:15:19.735Z,20.40
2019-04-04T07:16:19.710Z,21.20
2019-04-04T07:17:19.717Z,20.90
2019-04-04T07:18:19.689Z,20.30
2019-04-04T07:19:19.762Z,17.60
2019-04-04T07:20:19.679Z,18.10
2019-04-04T07:21:20.243Z,21.20
2019-04-04T07:22:20.591Z,19.10
2019-04-04T07:23:19.681Z,19.60
2019-04-04T07:24:19.635Z,20.80
2019-04-04T07:25:19.613Z,19.10
2019-04-04T07:26:19.637Z,22.40
2019-04-04T07:27:19.643Z,17.90
2019-04-04T07:28:19.720Z,19.00
2019-04-04T07:29:19.625Z,18.10
2019-04-04T07:30:19.559Z,16.70
2019-04-04T07:31:19.540Z,18.30
2019-04-04T07:32:19.571Z,20.10
2019-04-04T07:33:21.340Z,18.30
2019-04-04T07:34:19.510Z,16.90
2019-04-04T07:35:21.079Z,16.40
2019-04-04T07:36:20.231Z,15.70
2019-04-04T07:37:21.872Z,17.30
2019-04-04T07:38:19.476Z,16.90
2019-04-04T07:39:21.196Z,16.10
2019-04-04T07:40:20.396Z,16.30
2019-04-04T07:41:19.481Z,16.50
2019-04-04T07:42:19.525Z,16.20
2019-04-04T07:43:20.107Z,15.80
2019-04-04T07:44:21.172Z,17.70
2019-04-04T07:45:19.382Z,18.00
2019-04-04T07:46:19.429Z,17.60
2019-04-04T07:47:19.552Z,18.40
2019-04-04T07:48:19.415Z,17.80
2019-04-04T07:49:21.103Z,16.90
2019-04-04T07:50:19.419Z,17.80
2019-04-04T07:51:19.344Z,17.90
2019-04-04T07:52:19.319Z,18.90
2019-04-04T07:53:19.298Z,16.10
2019-04-04T07:54:19.293Z,16.80
2019-04-04T07:55:19.416Z,18.70
2019-04-04T07:56:19.316Z,15.10
2019-04-04T07:57:19.874Z,17.00
2019-04-04T07:58:19.418Z,16.90
2019-04-04T07:59:19.253Z,17.30
2019-04-04T08:00:19.220Z,18.00
2019-04-04T08:01:19.248Z,18.30
2019-04-04T08:02:19.258Z,18.30
2019-04-04T08:03:19.202Z,18.00
2019-04-04T08:04:19.243Z,16.30
2019-04-04T08:05:19.166Z,15.10
2019-04-04T08:06:19.186Z,15.80
2019-04-04T08:07:19.161Z,16.50
2019-04-04T08:08:19.135Z,16.30
2019-04-04T08:09:19.200Z,18.30
2019-04-04T08:10:20.864Z,16.30
2019-04-04T08:11:19.095Z,15.90
2019-04-04T08:12:19.084Z,15.30
2019-04-04T08:13:19.160Z,17.40
2019-04-04T08:14:19.095Z,17.70
2019-04-04T08:15:19.051Z,15.40
2019-04-04T08:16:19.041Z,17.00
2019-04-04T08:17:19.248Z,16.30
2019-04-04T08:18:19.070Z,17.80
2019-04-04T08:19:19.007Z,17.60
2019-04-04T08:20:19.087Z,16.10
2019-04-04T08:21:19.002Z,16.40
2019-04-04T08:22:19.175Z,16.00
2019-04-04T08:23:18.964Z,14.30
2019-04-04T08:24:19.008Z,14.70
2019-04-04T08:25:18.968Z,13.70
2019-04-04T08:26:18.941Z,13.50
2019-04-04T08:27:18.962Z,13.90
2019-04-04T08:28:18.922Z,13.20
2019-04-04T08:29:18.956Z,11.60
2019-04-04T08:30:19.026Z,11.60
2019-04-04T08:31:18.897Z,12.30
2019-04-04T08:32:18.881Z,11.40
2019-04-04T08:33:18.873Z,12.50
2019-04-04T08:34:18.886Z,11.30
2019-04-04T08:35:18.846Z,10.30
2019-04-04T08:36:19.534Z,10.80
2019-04-04T08:37:18.825Z,9.30
2019-04-04T08:38:18.797Z,10.70
2019-04-04T08:39:18.798Z,11.30
2019-04-04T08:40:18.832Z,11.90
2019-04-04T08:41:18.756Z,9.50
2019-04-04T08:42:18.753Z,9.00
2019-04-04T08:43:18.914Z,9.10
2019-04-04T08:44:18.735Z,8.30
2019-04-04T08:45:18.728Z,7.60
2019-04-04T08:46:20.117Z,7.80
2019-04-04T08:47:18.837Z,8.80
2019-04-04T08:48:19.020Z,7.20
2019-04-04T08:49:18.671Z,7.60
2019-04-04T08:50:18.660Z,6.60
2019-04-04T08:51:18.701Z,7.00
2019-04-04T08:52:20.767Z,7.10
2019-04-04T08:53:18.693Z,6.80
2019-04-04T08:54:18.717Z,6.60
2019-04-04T08:55:18.611Z,6.30
2019-04-04T08:56:18.635Z,7.00
2019-04-04T08:57:18.592Z,15.60
2019-04-04T08:58:18.576Z,6.60
2019-04-04T08:59:18.570Z,7.20
2019-04-04T09:00:18.587Z,7.40
2019-04-04T09:01:18.577Z,6.90
2019-04-04T09:02:18.528Z,7.10
2019-04-04T09:03:18.519Z,6.70
2019-04-04T09:04:18.514Z,6.80
2019-04-04T09:05:18.502Z,8.40
2019-04-04T09:06:18.531Z,7.90
2019-04-04T09:07:18.515Z,8.70
2019-04-04T09:08:18.488Z,7.90
2019-04-04T09:09:18.554Z,8.10
2019-04-04T09:10:18.753Z,7.60
2019-04-04T09:11:18.444Z,10.80
2019-04-04T09:12:18.411Z,7.50
2019-04-04T09:13:18.448Z,8.80
2019-04-04T09:14:18.391Z,8.30
2019-04-04T09:15:18.424Z,9.50
2019-04-04T09:16:18.429Z,8.70
2019-04-04T09:17:18.404Z,8.60
2019-04-04T09:18:18.356Z,8.60
2019-04-04T09:19:18.336Z,8.30
2019-04-04T09:20:18.320Z,8.60
2019-04-04T09:21:18.333Z,9.20
2019-04-04T09:22:18.357Z,7.70
2019-04-04T09:23:18.292Z,9.10
2019-04-04T09:24:18.277Z,10.10
2019-04-04T09:25:18.332Z,7.90
2019-04-04T09:26:18.273Z,7.60
2019-04-04T09:27:18.643Z,7.60
2019-04-04T09:28:18.272Z,8.10
2019-04-04T09:29:18.266Z,7.90
2019-04-04T09:30:18.213Z,8.40
2019-04-04T09:31:18.204Z,8.40
2019-04-04T09:32:18.203Z,8.60
2019-04-04T09:33:20.921Z,7.50
2019-04-04T09:34:18.197Z,8.20
2019-04-04T09:35:18.336Z,8.10
2019-04-04T09:36:18.176Z,7.80
2019-04-04T09:37:18.197Z,7.50
2019-04-04T09:38:18.125Z,7.80
2019-04-04T09:39:18.129Z,8.10
2019-04-04T09:40:18.183Z,7.60
2019-04-04T09:41:19.823Z,7.90
2019-04-04T09:42:21.760Z,8.30
2019-04-04T09:43:20.704Z,8.10
2019-04-04T09:44:18.093Z,8.30
2019-04-04T09:45:18.107Z,8.00
2019-04-04T09:46:18.074Z,7.40
2019-04-04T09:47:18.109Z,8.00
2019-04-04T09:48:18.053Z,8.30
2019-04-04T09:49:20.344Z,8.10
2019-04-04T09:50:18.006Z,7.80
2019-04-04T09:51:17.972Z,7.50
2019-04-04T09:52:18.109Z,7.50
2019-04-04T09:53:18.004Z,7.90
2019-04-04T09:54:19.441Z,7.70
2019-04-04T09:55:18.042Z,8.30
2019-04-04T09:56:17.946Z,8.10
2019-04-04T09:57:18.183Z,8.10
2019-04-04T09:58:18.250Z,8.30
2019-04-04T09:59:18.217Z,8.00
2019-04-04T10:00:17.880Z,7.60
2019-04-04T10:01:17.866Z,7.90
2019-04-04T10:02:18.283Z,7.70
2019-04-04T10:03:17.856Z,7.30
2019-04-04T10:04:19.108Z,8.40
2019-04-04T10:05:17.970Z,9.10
2019-04-04T10:06:17.837Z,7.70
2019-04-04T10:07:17.845Z,7.30
2019-04-04T10:08:17.860Z,7.80
2019-04-04T10:09:17.791Z,7.50
2019-04-04T10:10:17.803Z,7.30
2019-04-04T10:11:17.766Z,7.90
2019-04-04T10:12:17.730Z,7.70
2019-04-04T10:13:17.743Z,7.50
2019-04-04T10:14:17.862Z,7.00
2019-04-04T10:15:17.704Z,7.70
2019-04-04T10:16:17.730Z,8.00
2019-04-04T10:17:17.802Z,7.10
2019-04-04T10:18:17.720Z,7.90
2019-04-04T10:19:17.655Z,8.00
2019-04-04T10:20:17.640Z,7.90
2019-04-04T10:21:17.693Z,8.20
2019-04-04T10:22:17.625Z,7.90
2019-04-04T10:23:17.613Z,7.60
2019-04-04T10:24:17.596Z,7.60
2019-04-04T10:25:17.666Z,7.80
2019-04-04T10:26:17.577Z,8.10
2019-04-04T10:27:17.563Z,8.00
2019-04-04T10:28:17.623Z,8.00
2019-04-04T10:29:17.550Z,8.30
2019-04-04T10:30:17.542Z,7.70
2019-04-04T10:31:17.557Z,8.00
2019-04-04T10:32:17.526Z,8.20
2019-04-04T10:33:17.508Z,7.50
2019-04-04T10:34:17.526Z,8.10
2019-04-04T10:35:17.486Z,7.80
2019-04-04T10:36:17.476Z,7.90
2019-04-04T10:37:17.456Z,8.20
2019-04-04T10:38:17.459Z,8.70
2019-04-04T10:39:28.229Z,8.20
2019-04-04T10:41:27.890Z,7.20
2019-04-04T10:42:28.768Z,8.10
2019-04-04T10:43:27.764Z,8.40
2019-04-04T10:44:27.751Z,8.50
2019-04-04T10:45:27.778Z,8.40
2019-04-04T10:46:27.716Z,8.10
2019-04-04T10:47:27.714Z,8.50
2019-04-04T10:48:28.252Z,7.90
2019-04-04T10:49:27.749Z,8.00
2019-04-04T10:50:27.721Z,8.20
2019-04-04T10:51:27.670Z,8.50
2019-04-04T10:52:27.717Z,8.30
2019-04-04T10:53:27.641Z,8.60
2019-04-04T10:54:27.638Z,8.30
2019-04-04T10:55:27.683Z,7.90
2019-04-04T10:56:27.633Z,8.10
2019-04-04T10:57:27.649Z,8.30
2019-04-04T10:58:27.602Z,7.40
2019-04-04T10:59:27.577Z,8.40
2019-04-04T11:00:30.357Z,8.60
2019-04-04T11:01:27.560Z,8.30
2019-04-04T11:02:27.587Z,7.90
2019-04-04T11:03:27.527Z,8.30
2019-04-04T11:04:27.525Z,8.50
2019-04-04T11:05:27.954Z,8.00
2019-04-04T11:06:27.496Z,8.10
2019-04-04T11:07:27.493Z,8.10
2019-04-04T11:08:27.544Z,7.80
2019-04-04T11:09:27.457Z,7.40
2019-04-04T11:10:27.455Z,8.50
2019-04-04T11:11:27.487Z,8.10
2019-04-04T11:12:27.427Z,8.30
2019-04-04T11:13:33.539Z,7.90
2019-04-04T11:14:28.476Z,8.40
2019-04-04T11:15:27.410Z,8.80
2019-04-04T11:16:30.407Z,9.30
2019-04-04T11:17:27.418Z,8.40
2019-04-04T11:18:27.387Z,7.90
2019-04-04T11:19:31.468Z,8.90
2019-04-04T11:20:27.350Z,8.30
2019-04-04T11:21:27.331Z,8.00
2019-04-04T11:22:27.321Z,8.90
2019-04-04T11:23:27.547Z,7.80
2019-04-04T11:24:27.295Z,8.00
2019-04-04T11:25:27.288Z,8.40
2019-04-04T11:26:27.273Z,8.30
2019-04-04T11:27:27.281Z,8.30
2019-04-04T11:28:27.244Z,8.20
2019-04-04T11:29:27.284Z,8.10
2019-04-04T11:30:27.242Z,7.70
2019-04-04T11:31:27.867Z,8.50
2019-04-04T11:32:27.216Z,8.30
2019-04-04T11:33:27.215Z,9.30
2019-04-04T11:34:27.197Z,9.10
2019-04-04T11:35:27.175Z,9.10
2019-04-04T11:36:27.158Z,7.70
2019-04-04T11:37:27.187Z,7.90
2019-04-04T11:38:27.202Z,7.60
2019-04-04T11:39:27.154Z,7.90
2019-04-04T11:40:27.112Z,8.50
2019-04-04T11:41:27.171Z,7.90
2019-04-04T11:42:27.113Z,7.40
2019-04-04T11:43:27.169Z,8.40
2019-04-04T11:44:27.098Z,7.30
2019-04-04T11:45:27.056Z,7.10
2019-04-04T11:46:27.061Z,7.60
2019-04-04T11:47:27.033Z,7.60
2019-04-04T11:48:27.026Z,6.90
2019-04-04T11:49:27.151Z,7.20
2019-04-04T11:50:27.013Z,6.40
2019-04-04T11:51:27.010Z,7.00
2019-04-04T11:52:27.028Z,7.50
2019-04-04T11:53:26.965Z,7.40
2019-04-04T11:54:26.965Z,7.10
2019-04-04T11:55:26.990Z,6.50
2019-04-04T11:56:27.002Z,7.40
2019-04-04T11:57:26.950Z,7.00
2019-04-04T11:58:26.917Z,6.40
2019-04-04T11:59:26.900Z,7.30
2019-04-04T12:00:27.376Z,6.60
2019-04-04T12:01:27.483Z,7.10
2019-04-04T12:02:26.906Z,5.80
2019-04-04T12:03:26.880Z,6.20
2019-04-04T12:04:26.856Z,5.60
2019-04-04T12:05:27.267Z,6.00
2019-04-04T12:06:27.414Z,6.10
2019-04-04T12:07:26.943Z,6.40
2019-04-04T12:08:26.808Z,5.20
2019-04-04T12:09:26.824Z,5.20
2019-04-04T12:10:26.775Z,5.10
2019-04-04T12:11:26.839Z,6.20
2019-04-04T12:12:26.752Z,4.80
2019-04-04T12:13:27.371Z,4.90
2019-04-04T12:14:26.849Z,5.50
2019-04-04T12:15:26.755Z,5.00
2019-04-04T12:16:26.701Z,5.00
2019-04-04T12:17:26.741Z,4.90
2019-04-04T12:18:26.730Z,4.40
2019-04-04T12:19:26.668Z,5.10
2019-04-04T12:20:26.651Z,4.70
2019-04-04T12:21:26.840Z,4.80
2019-04-04T12:22:26.685Z,5.20
2019-04-04T12:23:26.645Z,4.90
2019-04-04T12:24:26.632Z,4.60
2019-04-04T12:25:26.611Z,5.30
2019-04-04T12:26:26.883Z,4.90
2019-04-04T12:27:26.640Z,4.50
2019-04-04T12:28:26.646Z,4.10
2019-04-04T12:29:26.606Z,4.00
2019-04-04T12:30:27.349Z,4.60
2019-04-04T12:31:26.540Z,3.90
2019-04-04T12:32:26.538Z,4.70
2019-04-04T12:33:26.551Z,4.60
2019-04-04T12:34:26.519Z,3.90
2019-04-04T12:35:27.392Z,3.50
2019-04-04T12:36:26.577Z,3.70
2019-04-04T12:37:27.433Z,3.30
2019-04-04T12:38:26.451Z,4.60
2019-04-04T12:39:26.456Z,4.40
2019-04-04T12:40:26.492Z,4.10
2019-04-04T12:41:28.465Z,3.60
2019-04-04T12:42:26.460Z,4.70
2019-04-04T12:43:26.495Z,4.50
2019-04-04T12:44:27.373Z,5.10
2019-04-04T12:45:26.529Z,4.50
2019-04-04T12:46:26.489Z,3.70
2019-04-04T12:47:26.367Z,3.80
2019-04-04T12:48:26.338Z,4.10
2019-04-04T12:49:26.401Z,3.40
2019-04-04T12:50:26.317Z,3.30
2019-04-04T12:51:26.575Z,3.90
2019-04-04T12:52:26.357Z,3.20
2019-04-04T12:53:26.278Z,4.50
2019-04-04T12:54:26.346Z,3.10
2019-04-04T12:55:26.373Z,3.20
2019-04-04T12:56:26.845Z,3.20
2019-04-04T12:57:26.250Z,3.40
2019-04-04T12:58:26.255Z,2.70
2019-04-04T12:59:26.246Z,3.10
2019-04-04T13:00:26.270Z,3.30
2019-04-04T13:01:26.450Z,3.50
2019-04-04T13:02:26.844Z,3.00